Time;durP1;ratioP1;P1;durP2;ratioP2;P2;SDS_P1;SDS_P2;PMS_P1;PMS_P2;Temp;Humidity;BMP_temperature;BMP_pressure;BME280_temperature;BME280_humidity;BME280_pressure;Samples;Min_cycle;Max_cycle;Signal;HPM_P1;HPM_P2
2022/10/29 00:00:59;;;;;;;21.20;9.18;;;13.10;92.90;;;;;;4997414;28;20026;-46
2022/10/29 00:03:26;;;;;;;26.25;9.77;;;13.10;92.90;;;;;;5034038;28;20083;-45
2022/10/29 00:06:01;;;;;;;22.45;8.88;;;13.00;92.90;;;;;;5031091;28;20033;-47
2022/10/29 00:08:30;;;;;;;22.27;9.50;;;13.00;93.00;;;;;;5016421;28;20493;-46
2022/10/29 00:11:12;;;;;;;29.75;10.00;;;13.10;93.10;;;;;;5032826;28;20022;-46
2022/10/29 00:13:41;;;;;;;16.70;7.85;;;13.10;93.10;;;;;;5017933;28;20096;-46
2022/10/29 00:16:28;;;;;;;22.67;9.18;;;13.10;93.10;;;;;;5015350;28;20522;-46
2022/10/29 00:18:56;;;;;;;20.70;8.88;;;13.10;93.20;;;;;;5031456;28;20045;-46
2022/10/29 00:21:25;;;;;;;22.52;8.43;;;13.10;93.10;;;;;;5028378;28;20548;-46
2022/10/29 00:23:52;;;;;;;24.17;8.53;;;13.00;93.10;;;;;;5033259;28;20037;-46
2022/10/29 00:26:20;;;;;;;22.63;9.73;;;13.10;93.10;;;;;;5031829;28;20477;-48
2022/10/29 00:28:53;;;;;;;22.35;8.45;;;13.10;93.10;;;;;;5032814;28;20034;-46
2022/10/29 00:31:23;;;;;;;22.35;8.60;;;13.00;93.10;;;;;;5033929;28;20026;-46
2022/10/29 00:33:54;;;;;;;23.42;7.50;;;13.00;93.00;;;;;;5034144;28;20072;-46
2022/10/29 00:36:22;;;;;;;15.68;8.60;;;13.00;93.10;;;;;;5017961;28;20037;-46
2022/10/29 00:38:49;;;;;;;21.50;7.93;;;12.90;93.10;;;;;;5033554;28;20018;-46
2022/10/29 00:41:19;;;;;;;20.85;8.35;;;13.00;93.10;;;;;;5033338;28;20030;-46
2022/10/29 00:44:20;;;;;;;23.27;9.55;;;12.90;93.00;;;;;;5032448;28;20022;-46
2022/10/29 00:47:01;;;;;;;23.65;7.55;;;12.90;93.10;;;;;;5025898;28;20099;-46
2022/10/29 00:49:31;;;;;;;20.20;8.18;;;12.90;93.10;;;;;;5027115;28;20050;-45
2022/10/29 00:52:01;;;;;;;16.77;8.02;;;12.90;93.10;;;;;;5030867;28;20021;-46
2022/10/29 00:54:31;;;;;;;19.33;8.80;;;12.80;93.10;;;;;;5033662;28;20351;-47
2022/10/29 00:57:00;;;;;;;;;;;12.80;93.10;;;;;;5033419;28;20033;-46
2022/10/29 00:59:27;;;;;;;17.88;6.72;;;12.70;93.00;;;;;;5032847;28;19951;-46
2022/10/29 01:01:56;;;;;;;17.27;7.50;;;12.70;92.90;;;;;;5011571;28;20046;-46
2022/10/29 01:04:24;;;;;;;17.80;7.45;;;12.60;92.80;;;;;;5015648;28;20041;-47
2022/10/29 01:06:51;;;;;;;16.23;7.88;;;12.60;92.80;;;;;;5030127;28;20041;-46
2022/10/29 01:09:18;;;;;;;20.50;8.00;;;12.50;92.80;;;;;;5033314;28;20468;-46
2022/10/29 01:12:14;;;;;;;19.25;7.88;;;12.50;92.70;;;;;;5011618;28;20021;-46
2022/10/29 01:15:04;;;;;;;24.58;8.75;;;12.40;92.80;;;;;;5014442;28;20026;-46
2022/10/29 01:17:59;;;;;;;19.35;7.65;;;12.40;92.80;;;;;;5017606;28;20029;-47
2022/10/29 01:20:55;;;;;;;24.85;7.78;;;12.40;92.80;;;;;;5017461;28;20450;-45
2022/10/29 01:23:48;;;;;;;19.90;8.82;;;12.30;92.80;;;;;;5033277;28;20028;-46
2022/10/29 01:26:32;;;;;;;22.30;8.93;;;12.30;92.80;;;;;;5033072;28;20128;-47
2022/10/29 01:29:16;;;;;;;20.75;8.88;;;12.30;92.90;;;;;;5015562;28;20076;-45
2022/10/29 01:31:56;;;;;;;21.52;10.88;;;12.30;92.90;;;;;;5031258;28;20026;-45
2022/10/29 01:34:40;;;;;;;24.50;11.30;;;12.30;93.00;;;;;;5033630;28;20022;-46
2022/10/29 01:37:19;;;;;;;22.00;10.90;;;12.30;93.00;;;;;;5032261;28;20351;-46
2022/10/29 01:40:06;;;;;;;16.80;10.27;;;12.40;93.00;;;;;;5031904;28;20029;-46
2022/10/29 01:42:47;;;;;;;20.02;8.70;;;12.40;93.10;;;;;;5032877;28;20030;-48
2022/10/29 01:45:25;;;;;;;8.77;6.90;;;12.40;93.20;;;;;;5027087;28;20050;-45
2022/10/29 01:48:03;;;;;;;28.65;9.18;;;12.40;93.30;;;;;;5013269;28;20037;-46
2022/10/29 01:50:32;;;;;;;16.50;8.45;;;12.50;93.30;;;;;;5025351;28;20041;-45
2022/10/29 01:53:02;;;;;;;7.80;5.95;;;12.40;93.30;;;;;;5030762;28;20022;-45
2022/10/29 01:55:34;;;;;;;10.20;7.00;;;12.50;93.30;;;;;;5033130;28;20041;-45
2022/10/29 01:58:05;;;;;;;8.07;6.60;;;12.40;93.30;;;;;;5033113;28;20029;-46
2022/10/29 02:00:43;;;;;;;8.68;6.20;;;12.50;93.30;;;;;;5031481;28;20117;-45
2022/10/29 02:03:38;;;;;;;22.63;7.35;;;12.40;93.40;;;;;;5015674;28;20049;-45
2022/10/29 02:06:26;;;;;;;10.02;6.88;;;12.50;93.30;;;;;;5009371;28;20040;-47
2022/10/29 02:09:04;;;;;;;28.48;7.65;;;12.40;93.40;;;;;;5012916;28;20037;-47
2022/10/29 02:11:57;;;;;;;16.17;7.40;;;12.40;93.40;;;;;;5013026;28;20045;-46
2022/10/29 02:14:38;;;;;;;9.27;7.00;;;12.40;93.40;;;;;;5020324;28;20433;-46
2022/10/29 02:17:06;;;;;;;7.75;7.05;;;12.40;93.40;;;;;;5036515;28;20038;-46
2022/10/29 02:19:34;;;;;;;9.57;7.88;;;12.40;93.40;;;;;;5030645;28;20455;-45
2022/10/29 02:22:01;;;;;;;10.98;7.47;;;12.40;93.40;;;;;;5033736;28;20045;-46
2022/10/29 02:24:29;;;;;;;8.05;7.25;;;12.30;93.40;;;;;;5015464;28;20121;-46
2022/10/29 02:26:55;;;;;;;9.00;8.10;;;12.30;93.50;;;;;;5033295;28;20025;-46
2022/10/29 02:29:22;;;;;;;14.32;8.65;;;12.30;93.50;;;;;;5018297;28;20041;-48
2022/10/29 02:31:49;;;;;;;9.63;8.63;;;12.30;93.40;;;;;;5035486;28;20037;-46
2022/10/29 02:34:16;;;;;;;12.80;9.25;;;12.30;93.50;;;;;;5018646;28;20505;-46
2022/10/29 02:36:48;;;;;;;10.20;9.13;;;12.30;93.60;;;;;;5034361;28;20029;-46
2022/10/29 02:39:17;;;;;;;10.73;8.95;;;12.30;93.60;;;;;;5035975;28;20033;-47
2022/10/29 02:41:44;;;;;;;15.88;10.65;;;12.30;93.70;;;;;;5036078;28;20450;-46
2022/10/29 02:44:10;;;;;;;9.98;8.98;;;12.40;93.80;;;;;;5035336;28;20033;-46
2022/10/29 02:46:39;;;;;;;31.75;11.02;;;12.40;93.80;;;;;;5035311;28;20030;-46
2022/10/29 02:49:05;;;;;;;18.25;11.00;;;12.40;93.80;;;;;;5017776;28;20038;-46
2022/10/29 02:51:33;;;;;;;13.90;10.80;;;12.40;93.90;;;;;;5030876;28;20516;-47
2022/10/29 02:54:01;;;;;;;22.88;11.35;;;12.40;93.90;;;;;;5035829;28;20032;-47
2022/10/29 02:56:27;;;;;;;13.32;10.55;;;12.50;94.00;;;;;;5035630;28;20030;-47
2022/10/29 02:58:54;;;;;;;21.00;11.57;;;12.50;94.00;;;;;;5035838;28;20116;-47
2022/10/29 03:01:21;;;;;;;14.85;10.65;;;12.50;94.00;;;;;;5033638;28;20052;-48
2022/10/29 03:03:51;;;;;;;10.55;9.40;;;12.50;94.00;;;;;;5035905;28;20033;-47
2022/10/29 03:06:19;;;;;;;12.88;9.57;;;12.50;94.00;;;;;;5026926;28;20038;-50
2022/10/29 03:08:46;;;;;;;12.65;9.52;;;12.50;94.00;;;;;;5031922;28;20026;-47
2022/10/29 03:11:13;;;;;;;13.18;10.10;;;12.50;94.10;;;;;;5016675;28;20409;-47
2022/10/29 03:13:39;;;;;;;25.48;11.30;;;12.50;94.00;;;;;;5017902;28;20036;-48
2022/10/29 03:16:06;;;;;;;12.05;9.82;;;12.50;94.00;;;;;;5031738;28;20343;-48
2022/10/29 03:18:33;;;;;;;12.45;9.95;;;12.40;94.10;;;;;;5004907;28;20149;-48
2022/10/29 03:20:59;;;;;;;15.02;9.95;;;12.40;94.00;;;;;;4999394;28;20033;-48
2022/10/29 03:23:25;;;;;;;15.15;10.48;;;12.40;94.10;;;;;;5032438;28;20029;-48
2022/10/29 03:25:53;;;;;;;10.93;9.35;;;12.40;94.10;;;;;;5002326;28;20044;-48
2022/10/29 03:28:20;;;;;;;17.67;10.50;;;12.40;94.00;;;;;;4986170;28;20455;-48
2022/10/29 03:30:48;;;;;;;12.90;10.80;;;12.30;94.10;;;;;;5015753;28;20045;-50
2022/10/29 03:33:13;;;;;;;16.88;11.32;;;12.30;94.10;;;;;;5026573;28;20140;-49
2022/10/29 03:35:40;;;;;;;12.57;10.85;;;12.30;94.10;;;;;;5017764;28;20108;-48
2022/10/29 03:38:07;;;;;;;14.93;11.00;;;12.30;94.10;;;;;;5030766;28;20025;-50
2022/10/29 03:40:34;;;;;;;14.80;10.98;;;12.30;94.10;;;;;;5033794;28;20025;-48
2022/10/29 03:43:01;;;;;;;12.27;10.73;;;12.30;94.10;;;;;;5020588;28;20435;-50
2022/10/29 03:45:27;;;;;;;13.75;11.98;;;12.30;94.20;;;;;;5005465;28;20065;-48
2022/10/29 03:47:55;;;;;;;20.55;11.98;;;12.30;94.10;;;;;;5028467;28;20041;-49
2022/10/29 03:50:22;;;;;;;15.10;11.38;;;12.30;94.30;;;;;;5022344;28;20486;-50
2022/10/29 03:52:49;;;;;;;13.65;11.95;;;12.40;94.30;;;;;;5053623;28;20037;-50
2022/10/29 03:55:16;;;;;;;18.55;11.82;;;12.40;94.30;;;;;;5053430;28;20100;-49
2022/10/29 03:57:43;;;;;;;23.05;11.43;;;12.40;94.30;;;;;;5053636;28;20377;-49
2022/10/29 04:00:11;;;;;;;85.93;14.73;;;12.40;94.30;;;;;;5053082;28;20021;-54
2022/10/29 04:02:38;;;;;;;12.30;10.68;;;12.40;94.20;;;;;;5053049;28;20511;-53
2022/10/29 04:05:06;;;;;;;20.20;10.90;;;12.40;94.30;;;;;;5053083;28;20378;-49
2022/10/29 04:07:33;;;;;;;17.70;10.80;;;12.30;94.30;;;;;;5051177;28;20020;-51
2022/10/29 04:09:58;;;;;;;34.63;12.55;;;12.40;94.40;;;;;;5041242;28;20040;-51
2022/10/29 04:12:25;;;;;;;20.67;11.43;;;12.30;94.40;;;;;;5033831;28;20021;-49
2022/10/29 04:14:52;;;;;;;16.80;10.98;;;12.30;94.40;;;;;;5041981;28;20099;-49
2022/10/29 04:17:19;;;;;;;12.23;10.98;;;12.30;94.50;;;;;;5053109;28;20147;-54
2022/10/29 04:19:46;;;;;;;16.17;12.48;;;12.40;94.50;;;;;;5052741;28;20040;-51
2022/10/29 04:22:13;;;;;;;25.17;11.85;;;12.40;94.50;;;;;;5053376;28;20029;-50
2022/10/29 04:24:40;;;;;;;11.35;9.80;;;12.40;94.50;;;;;;5052945;28;20091;-50
2022/10/29 04:27:07;;;;;;;11.70;10.48;;;12.40;94.50;;;;;;5052448;28;20028;-53
2022/10/29 04:29:35;;;;;;;13.25;10.85;;;12.40;94.50;;;;;;5045491;28;20044;-51
2022/10/29 04:32:02;;;;;;;15.27;11.63;;;12.40;94.50;;;;;;5053058;28;20025;-52
2022/10/29 04:34:29;;;;;;;12.85;10.43;;;12.40;94.50;;;;;;5053103;28;20524;-51
2022/10/29 04:36:56;;;;;;;21.15;11.57;;;12.40;94.60;;;;;;5051414;28;20021;-52
2022/10/29 04:39:24;;;;;;;13.93;11.90;;;12.40;94.60;;;;;;5038135;28;20096;-51
2022/10/29 04:41:53;;;;;;;18.73;12.27;;;12.40;94.60;;;;;;5050003;28;20661;-54
2022/10/29 04:44:20;;;;;;;19.38;12.63;;;12.40;94.60;;;;;;5053657;28;20033;-51
2022/10/29 04:46:47;;;;;;;43.45;13.85;;;12.40;94.70;;;;;;5053013;28;20020;-53
2022/10/29 04:49:15;;;;;;;15.13;12.40;;;12.40;94.70;;;;;;5052289;28;20032;-50
2022/10/29 04:51:41;;;;;;;19.75;12.65;;;12.40;94.60;;;;;;5051832;28;20033;-51
2022/10/29 04:54:07;;;;;;;51.47;13.48;;;12.40;94.60;;;;;;5031350;28;20061;-51
2022/10/29 04:56:34;;;;;;;20.33;12.18;;;12.40;94.60;;;;;;5031586;28;20041;-49
2022/10/29 04:59:01;;;;;;;22.40;12.15;;;12.40;94.70;;;;;;5052339;28;20052;-54
2022/10/29 05:01:29;;;;;;;21.65;11.38;;;12.30;94.70;;;;;;5051937;28;20025;-53
2022/10/29 05:03:55;;;;;;;12.23;10.63;;;12.30;94.70;;;;;;5052965;28;20343;-49
2022/10/29 05:06:22;;;;;;;61.08;11.77;;;12.30;94.70;;;;;;5032372;28;20044;-49
2022/10/29 05:08:49;;;;;;;16.58;11.50;;;12.30;94.70;;;;;;5026414;28;20041;-51
2022/10/29 05:11:15;;;;;;;14.55;10.77;;;12.30;94.70;;;;;;5051939;28;20066;-49
2022/10/29 05:13:44;;;;;;;22.45;10.93;;;12.30;94.80;;;;;;5053201;28;20063;-49
2022/10/29 05:16:10;;;;;;;13.27;11.00;;;12.20;94.70;;;;;;5052864;28;20033;-49
2022/10/29 05:18:36;;;;;;;18.52;11.27;;;12.20;94.80;;;;;;5041581;28;20083;-49
2022/10/29 05:21:05;;;;;;;20.60;10.90;;;12.20;94.70;;;;;;5015938;28;20029;-51
2022/10/29 05:23:32;;;;;;;25.25;10.20;;;12.30;94.80;;;;;;5035949;28;20044;-52
2022/10/29 05:25:59;;;;;;;71.05;12.50;;;12.20;94.70;;;;;;5051953;28;20029;-49
2022/10/29 05:28:26;;;;;;;44.63;12.73;;;12.20;94.70;;;;;;5052983;28;20090;-51
2022/10/29 05:30:53;;;;;;;13.23;10.20;;;12.20;94.70;;;;;;5051931;28;20450;-49
2022/10/29 05:33:22;;;;;;;46.50;11.63;;;12.20;94.80;;;;;;5052226;28;20362;-49
2022/10/29 05:35:51;;;;;;;44.60;13.45;;;12.10;94.60;;;;;;5053151;28;20070;-49
2022/10/29 05:38:18;;;;;;;35.33;11.77;;;12.00;94.60;;;;;;5051038;28;20037;-49
2022/10/29 05:40:44;;;;;;;30.08;11.05;;;11.90;94.60;;;;;;5031241;28;20435;-49
2022/10/29 05:43:13;;;;;;;22.77;9.45;;;11.90;94.70;;;;;;5031823;28;20038;-49
2022/10/29 05:45:43;;;;;;;12.32;10.25;;;11.90;94.80;;;;;;5049009;28;20017;-49
2022/10/29 05:48:11;;;;;;;21.60;10.38;;;11.90;94.80;;;;;;5030755;28;20052;-50
2022/10/29 05:50:38;;;;;;;15.73;9.68;;;11.90;94.70;;;;;;5051169;28;20046;-49
2022/10/29 05:53:10;;;;;;;19.60;9.80;;;11.80;94.70;;;;;;5036912;28;20037;-51
2022/10/29 05:55:37;;;;;;;12.02;10.48;;;11.80;94.80;;;;;;5054487;28;20442;-51
2022/10/29 05:58:06;;;;;;;22.05;10.90;;;11.90;94.80;;;;;;5054859;28;20033;-48
2022/10/29 06:00:39;;;;;;;12.25;10.23;;;11.80;94.80;;;;;;5056628;28;20021;-49
2022/10/29 06:03:16;;;;;;;20.15;11.05;;;11.90;94.80;;;;;;5039848;28;20139;-49
2022/10/29 06:05:44;;;;;;;15.32;10.90;;;11.80;94.80;;;;;;5039811;28;20021;-49
2022/10/29 06:08:11;;;;;;;47.75;13.25;;;11.80;94.80;;;;;;5037106;28;20128;-49
2022/10/29 06:10:38;;;;;;;14.85;11.23;;;11.80;94.80;;;;;;5056589;28;20345;-49
2022/10/29 06:13:18;;;;;;;16.88;11.45;;;11.80;94.90;;;;;;5055329;28;20037;-52
2022/10/29 06:15:46;;;;;;;68.00;13.70;;;11.80;94.80;;;;;;5055039;28;20028;-50
2022/10/29 06:18:18;;;;;;;79.03;14.13;;;11.70;94.70;;;;;;5043385;28;20393;-50
2022/10/29 06:20:44;;;;;;;50.22;12.85;;;11.70;94.80;;;;;;5055528;28;20029;-49
2022/10/29 06:23:12;;;;;;;20.15;10.68;;;11.70;94.80;;;;;;5055534;28;20117;-51
2022/10/29 06:25:39;;;;;;;12.70;8.93;;;11.70;94.80;;;;;;5054751;28;20045;-49
2022/10/29 06:28:13;;;;;;;17.80;11.02;;;11.70;94.80;;;;;;5056120;28;20025;-49
2022/10/29 06:30:47;;;;;;;32.17;11.40;;;11.70;94.90;;;;;;5056187;28;20457;-51
2022/10/29 06:33:14;;;;;;;33.30;10.75;;;11.70;94.80;;;;;;5037594;28;20035;-51
2022/10/29 06:35:41;;;;;;;64.35;13.48;;;11.60;94.70;;;;;;5055000;28;20104;-49
2022/10/29 06:38:11;;;;;;;22.58;9.45;;;11.60;94.80;;;;;;5037352;28;20039;-49
2022/10/29 06:40:38;;;;;;;17.05;9.18;;;11.60;94.80;;;;;;5055125;28;20115;-49
2022/10/29 06:43:10;;;;;;;25.55;9.80;;;11.60;94.70;;;;;;5029382;28;20103;-50
2022/10/29 06:45:37;;;;;;;14.23;9.27;;;11.60;94.80;;;;;;5055002;28;20400;-51
2022/10/29 06:48:04;;;;;;;13.07;8.75;;;11.60;94.80;;;;;;5055832;28;20086;-50
2022/10/29 06:50:33;;;;;;;39.80;10.77;;;11.60;94.70;;;;;;5052897;28;20259;-48
2022/10/29 06:53:02;;;;;;;11.98;9.20;;;11.60;94.80;;;;;;5053439;28;20037;-49
2022/10/29 06:55:29;;;;;;;33.90;10.45;;;11.60;94.80;;;;;;5032729;28;20465;-49
2022/10/29 06:57:57;;;;;;;24.40;10.20;;;11.60;94.80;;;;;;5054694;28;20036;-49
2022/10/29 07:00:23;;;;;;;23.60;10.40;;;11.60;94.70;;;;;;5054717;28;20502;-50
2022/10/29 07:02:50;;;;;;;51.10;10.60;;;11.60;94.70;;;;;;5055781;28;20025;-51
2022/10/29 07:05:15;;;;;;;72.20;11.98;;;11.60;94.70;;;;;;5055772;28;20441;-54
2022/10/29 07:07:41;;;;;;;71.05;13.38;;;11.60;94.80;;;;;;5053958;28;20100;-52
2022/10/29 07:10:08;;;;;;;31.67;10.45;;;11.60;94.80;;;;;;5044726;28;20040;-49
2022/10/29 07:12:40;;;;;;;28.30;10.65;;;11.70;94.80;;;;;;5050756;28;20028;-50
2022/10/29 07:15:08;;;;;;;17.70;9.57;;;11.70;95.00;;;;;;5054557;28;20439;-49
2022/10/29 07:17:36;;;;;;;21.48;10.23;;;11.70;94.90;;;;;;5055361;28;20093;-48
2022/10/29 07:20:04;;;;;;;22.13;10.57;;;11.80;95.00;;;;;;5053584;28;20543;-48
2022/10/29 07:22:34;;;;;;;13.48;9.85;;;11.80;94.90;;;;;;5053833;28;20733;-51
2022/10/29 07:25:00;;;;;;;45.50;11.95;;;11.80;94.90;;;;;;5054536;28;20029;-49
2022/10/29 07:27:27;;;;;;;22.98;10.80;;;11.80;95.00;;;;;;5055041;28;20449;-49
2022/10/29 07:29:53;;;;;;;16.88;10.98;;;11.90;95.00;;;;;;5020322;28;20516;-51
2022/10/29 07:32:22;;;;;;;30.63;11.10;;;11.90;94.90;;;;;;5054565;28;20108;-54
2022/10/29 07:34:49;;;;;;;20.42;10.30;;;11.90;95.00;;;;;;5054190;28;20170;-52
2022/10/29 07:37:16;;;;;;;14.05;11.25;;;12.00;94.90;;;;;;5054720;28;20082;-49
2022/10/29 07:39:41;;;;;;;18.65;11.40;;;12.00;95.00;;;;;;5035878;28;20602;-49
2022/10/29 07:42:07;;;;;;;19.00;11.57;;;12.10;95.00;;;;;;5054264;28;20025;-48
2022/10/29 07:44:34;;;;;;;17.35;12.43;;;12.10;95.00;;;;;;5053916;28;20052;-48
2022/10/29 07:47:01;;;;;;;12.25;10.95;;;12.30;95.10;;;;;;5053564;28;20826;-55
2022/10/29 07:49:27;;;;;;;13.15;11.10;;;12.30;95.10;;;;;;5053530;28;20044;-48
2022/10/29 07:51:54;;;;;;;17.08;12.20;;;12.40;95.10;;;;;;5054749;28;20358;-48
2022/10/29 07:54:20;;;;;;;17.23;12.70;;;12.40;95.10;;;;;;5052591;28;20029;-50
2022/10/29 07:56:47;;;;;;;16.40;12.73;;;12.40;95.10;;;;;;5054495;28;20017;-51
2022/10/29 07:59:14;;;;;;;27.55;13.27;;;12.50;95.10;;;;;;5053247;28;20059;-48
2022/10/29 08:01:43;;;;;;;14.40;10.73;;;12.60;95.00;;;;;;5053593;28;20025;-50
2022/10/29 08:04:10;;;;;;;18.00;10.23;;;12.60;95.00;;;;;;5052903;28;20036;-50
2022/10/29 08:06:37;;;;;;;12.20;9.35;;;12.60;95.00;;;;;;5035611;28;20029;-53
2022/10/29 08:09:03;;;;;;;11.32;10.13;;;12.70;94.90;;;;;;5018832;28;20045;-51
2022/10/29 08:11:31;;;;;;;16.38;10.82;;;12.80;94.90;;;;;;5053551;28;20118;-48
2022/10/29 08:13:58;;;;;;;17.83;9.82;;;12.80;94.80;;;;;;5050464;28;20022;-48
2022/10/29 08:16:25;;;;;;;16.35;10.55;;;12.80;94.90;;;;;;5040306;28;20032;-48
2022/10/29 08:18:52;;;;;;;12.18;10.50;;;12.80;94.80;;;;;;5054063;28;20485;-48
2022/10/29 08:21:19;;;;;;;18.08;10.77;;;12.90;94.80;;;;;;5052858;28;20366;-52
2022/10/29 08:23:46;;;;;;;23.40;11.75;;;12.90;94.80;;;;;;5050561;28;20064;-50
2022/10/29 08:26:13;;;;;;;17.67;10.23;;;12.90;94.60;;;;;;5048543;28;20345;-49
2022/10/29 08:28:42;;;;;;;13.10;9.98;;;12.90;94.70;;;;;;5053745;28;20078;-49
2022/10/29 08:31:09;;;;;;;10.85;9.73;;;13.00;94.70;;;;;;5053629;28;20354;-48
2022/10/29 08:33:36;;;;;;;12.60;10.18;;;13.00;94.80;;;;;;5053228;28;20040;-51
2022/10/29 08:36:03;;;;;;;14.20;11.02;;;13.10;94.70;;;;;;5053218;28;20031;-48
2022/10/29 08:38:29;;;;;;;14.38;11.45;;;13.30;94.70;;;;;;5053709;28;20029;-55
2022/10/29 08:41:31;;;;;;;16.38;11.23;;;13.40;94.60;;;;;;5030503;28;20072;-52
2022/10/29 08:44:15;;;;;;;19.65;11.55;;;13.40;94.50;;;;;;5014877;28;20029;-48
2022/10/29 08:47:19;;;;;;;17.13;11.40;;;13.40;94.50;;;;;;5040034;28;20029;-48
2022/10/29 08:49:51;;;;;;;14.85;12.32;;;13.40;94.40;;;;;;5052654;28;20041;-50
2022/10/29 08:52:24;;;;;;;18.35;10.95;;;13.40;94.50;;;;;;5052634;28;20029;-47
2022/10/29 08:55:17;;;;;;;15.07;11.32;;;13.40;94.50;;;;;;5052766;28;20024;-47
2022/10/29 08:57:51;;;;;;;17.75;12.02;;;13.40;94.40;;;;;;5053498;28;20039;-47
2022/10/29 09:00:30;;;;;;;18.73;13.85;;;13.40;94.50;;;;;;5051584;28;20052;-50
2022/10/29 09:02:59;;;;;;;13.88;12.18;;;13.50;94.50;;;;;;5053094;28;20021;-48
2022/10/29 09:05:52;;;;;;;18.10;12.50;;;13.40;94.50;;;;;;5053358;28;20040;-48
2022/10/29 09:08:46;;;;;;;17.42;13.70;;;13.40;94.50;;;;;;5052080;28;20488;-48
2022/10/29 09:11:45;;;;;;;20.23;15.48;;;13.50;94.50;;;;;;5051527;28;20116;-51
2022/10/29 09:14:34;;;;;;;;;;;13.50;94.50;;;;;;5052640;28;20029;-49
2022/10/29 09:17:22;;;;;;;21.70;14.48;;;13.50;94.70;;;;;;5007017;28;20292;-47
2022/10/29 09:20:07;;;;;;;25.60;15.65;;;13.60;94.60;;;;;;5052510;28;20028;-47
2022/10/29 09:22:47;;;;;;;22.42;16.67;;;13.60;94.60;;;;;;5051257;28;20110;-47
2022/10/29 09:25:28;;;;;;;21.73;17.05;;;13.60;94.60;;;;;;5052235;28;20060;-49
2022/10/29 09:28:41;;;;;;;21.52;16.70;;;13.70;94.70;;;;;;5050766;28;20048;-47
2022/10/29 09:31:16;;;;;;;28.95;18.05;;;13.80;94.70;;;;;;5051716;28;20029;-46
2022/10/29 09:33:47;;;;;;;25.77;18.45;;;13.90;94.70;;;;;;5053006;28;20112;-48
2022/10/29 09:36:18;;;;;;;25.25;18.50;;;13.90;94.60;;;;;;5052137;28;20055;-47
2022/10/29 09:39:03;;;;;;;30.20;20.83;;;13.90;94.60;;;;;;5051809;28;20033;-48
2022/10/29 09:41:35;;;;;;;27.25;19.40;;;14.00;94.60;;;;;;5051062;28;20029;-48
2022/10/29 09:44:42;;;;;;;26.25;19.88;;;14.00;94.60;;;;;;5052919;28;20032;-51
2022/10/29 09:47:41;;;;;;;23.50;18.13;;;14.10;94.70;;;;;;5023075;28;20037;-49
2022/10/29 09:50:39;;;;;;;24.98;19.17;;;14.10;94.60;;;;;;5051217;28;20049;-47
2022/10/29 09:53:07;;;;;;;24.67;18.23;;;14.20;94.60;;;;;;5052387;28;20088;-47
2022/10/29 09:55:45;;;;;;;30.15;21.05;;;14.10;94.50;;;;;;5050501;28;20082;-49
2022/10/29 09:58:41;;;;;;;32.55;20.17;;;14.20;94.50;;;;;;5052185;28;20037;-47
2022/10/29 10:01:08;;;;;;;28.38;20.38;;;14.20;94.50;;;;;;5042695;28;20403;-46
2022/10/29 10:03:47;;;;;;;30.92;21.63;;;14.20;94.50;;;;;;5032962;28;20017;-46
2022/10/29 10:06:15;;;;;;;29.38;20.77;;;14.10;94.30;;;;;;5022260;28;20029;-46
2022/10/29 10:09:01;;;;;;;30.80;21.73;;;14.30;94.40;;;;;;5051539;28;20045;-48
2022/10/29 10:11:48;;;;;;;28.20;21.50;;;14.30;94.40;;;;;;5051183;28;20346;-46
2022/10/29 10:14:20;;;;;;;32.65;23.65;;;14.40;94.30;;;;;;5051475;28;20049;-47
2022/10/29 10:16:58;;;;;;;31.05;22.17;;;14.30;94.10;;;;;;5051995;28;20078;-46
2022/10/29 10:19:30;;;;;;;33.60;22.80;;;14.30;94.10;;;;;;5052607;28;20028;-46
2022/10/29 10:21:58;;;;;;;34.97;23.02;;;14.30;94.20;;;;;;5050686;28;20083;-48
2022/10/29 10:24:42;;;;;;;41.58;25.45;;;14.40;94.20;;;;;;5052282;28;20078;-47
2022/10/29 10:27:30;;;;;;;39.33;26.13;;;14.40;94.10;;;;;;5039680;28;20798;-49
2022/10/29 10:30:16;;;;;;;42.08;27.10;;;14.30;94.00;;;;;;5051169;28;20432;-50
2022/10/29 10:32:43;;;;;;;45.58;27.77;;;14.30;94.10;;;;;;5051656;28;20378;-47
2022/10/29 10:35:29;;;;;;;49.45;29.70;;;14.40;94.20;;;;;;5053789;28;20021;-45
2022/10/29 10:38:05;;;;;;;63.55;31.05;;;14.40;94.10;;;;;;5038312;28;20017;-47
2022/10/29 10:40:32;;;;;;;64.20;30.77;;;14.40;94.10;;;;;;5055125;28;20369;-48
2022/10/29 10:43:01;;;;;;;60.88;31.63;;;14.40;94.00;;;;;;5039588;28;20033;-47
2022/10/29 10:45:38;;;;;;;69.53;32.95;;;14.40;94.10;;;;;;5038970;28;20041;-46
2022/10/29 10:48:09;;;;;;;70.18;33.30;;;14.50;94.10;;;;;;5054358;28;22036;-46
2022/10/29 10:50:36;;;;;;;62.42;32.65;;;14.50;94.00;;;;;;5055523;28;20053;-46
2022/10/29 10:53:14;;;;;;;66.75;31.38;;;14.60;94.10;;;;;;5037076;28;20108;-46
2022/10/29 10:55:49;;;;;;;70.82;33.53;;;14.50;94.00;;;;;;5055723;28;20021;-47
2022/10/29 10:58:33;;;;;;;74.18;34.47;;;14.60;94.00;;;;;;5053333;28;20025;-46
2022/10/29 11:01:08;;;;;;;76.03;33.75;;;14.50;93.90;;;;;;5055449;28;20517;-46
2022/10/29 11:04:14;;;;;;;87.07;33.35;;;14.50;93.90;;;;;;5054363;28;20040;-47
2022/10/29 11:06:48;;;;;;;79.57;35.17;;;14.50;94.00;;;;;;5054750;28;20035;-46
2022/10/29 11:09:32;;;;;;;85.35;36.30;;;14.60;93.90;;;;;;5055471;28;20079;-49
2022/10/29 11:12:12;;;;;;;83.22;34.53;;;14.70;94.00;;;;;;5054734;28;20028;-47
2022/10/29 11:14:49;;;;;;;69.45;33.75;;;14.80;93.90;;;;;;5054433;28;20120;-49
2022/10/29 11:17:34;;;;;;;73.63;36.28;;;14.90;93.90;;;;;;5053854;28;20059;-47
2022/10/29 11:20:07;;;;;;;67.75;33.97;;;15.00;93.90;;;;;;5037763;28;20112;-47
2022/10/29 11:22:57;;;;;;;66.70;33.35;;;15.20;93.80;;;;;;5055218;28;20377;-48
2022/10/29 11:25:38;;;;;;;65.00;35.20;;;15.20;93.70;;;;;;5055205;28;20025;-47
2022/10/29 11:28:37;;;;;;;63.00;31.70;;;15.30;93.40;;;;;;5054361;28;20047;-47
2022/10/29 11:31:35;;;;;;;63.07;32.30;;;15.40;93.50;;;;;;5053837;28;20033;-48
2022/10/29 11:34:23;;;;;;;45.70;30.27;;;15.40;93.10;;;;;;5055353;28;20491;-47
2022/10/29 11:37:30;;;;;;;44.05;30.25;;;15.60;92.90;;;;;;5054083;28;20017;-47
2022/10/29 11:40:32;;;;;;;40.83;27.90;;;15.60;92.70;;;;;;5053555;28;20088;-47
2022/10/29 11:43:02;;;;;;;42.92;28.08;;;15.80;92.70;;;;;;4997833;28;20049;-49
2022/10/29 11:46:05;;;;;;;38.70;28.95;;;15.80;92.30;;;;;;5034198;28;20080;-47
2022/10/29 11:48:40;;;;;;;40.25;28.42;;;15.70;91.80;;;;;;5046231;28;20033;-47
2022/10/29 11:51:17;;;;;;;38.60;26.88;;;15.70;91.90;;;;;;5054612;28;20045;-47
2022/10/29 11:54:07;;;;;;;39.05;26.88;;;15.90;92.20;;;;;;5037111;28;20428;-47
2022/10/29 11:56:51;;;;;;;;;;;15.80;91.50;;;;;;5035411;28;20038;-47
2022/10/29 11:59:38;;;;;;;37.90;25.98;;;15.80;91.90;;;;;;5034806;28;19911;-48
2022/10/29 12:02:28;;;;;;;38.33;28.05;;;15.80;91.80;;;;;;5040562;28;20029;-47
2022/10/29 12:05:12;;;;;;;38.00;26.08;;;15.70;91.40;;;;;;5054033;28;20509;-49
2022/10/29 12:08:11;;;;;;;33.35;25.15;;;15.80;91.60;;;;;;5053653;28;20107;-47
2022/10/29 12:10:43;;;;;;;35.67;27.23;;;15.80;91.80;;;;;;5040810;28;20079;-47
2022/10/29 12:13:27;;;;;;;26.80;22.38;;;15.90;91.80;;;;;;5046953;28;20029;-47
2022/10/29 12:16:30;;;;;;;32.88;24.48;;;15.90;91.80;;;;;;5054291;28;20024;-47
2022/10/29 12:19:17;;;;;;;33.72;24.38;;;16.00;91.50;;;;;;5032110;28;20060;-47
2022/10/29 12:21:45;;;;;;;35.88;26.70;;;15.90;91.20;;;;;;5034037;28;20026;-47
2022/10/29 12:24:41;;;;;;;30.20;24.35;;;15.80;91.20;;;;;;5036187;28;20380;-46
2022/10/29 12:27:25;;;;;;;36.63;25.05;;;15.80;91.40;;;;;;5035654;28;20045;-47
2022/10/29 12:30:02;;;;;;;37.63;26.02;;;15.70;91.40;;;;;;5033872;28;20037;-47
2022/10/29 12:33:07;;;;;;;31.45;23.85;;;15.60;91.50;;;;;;5039262;28;20437;-47
2022/10/29 12:35:58;;;;;;;34.47;25.65;;;15.60;91.60;;;;;;5034107;28;20025;-46
2022/10/29 12:38:49;;;;;;;31.83;24.50;;;15.60;91.80;;;;;;5043808;28;20075;-47
2022/10/29 12:41:35;;;;;;;37.60;25.00;;;15.60;92.00;;;;;;5051405;28;20025;-47
2022/10/29 12:44:24;;;;;;;34.97;25.63;;;15.60;92.00;;;;;;5048757;28;20029;-47
2022/10/29 12:47:12;;;;;;;40.27;27.80;;;15.70;92.20;;;;;;5052121;28;20031;-47
2022/10/29 12:49:40;;;;;;;43.63;27.13;;;15.80;92.10;;;;;;5050657;28;20103;-49
2022/10/29 12:52:29;;;;;;;34.83;24.60;;;15.80;91.80;;;;;;5041703;28;20450;-51
2022/10/29 12:54:59;;;;;;;40.83;24.75;;;15.80;91.90;;;;;;5049519;28;20032;-47
2022/10/29 12:57:33;;;;;;;;;;;15.90;92.00;;;;;;5018309;28;20074;-48
2022/10/29 13:00:37;;;;;;;40.03;26.02;;;16.00;91.80;;;;;;5018743;28;20311;-50
2022/10/29 13:03:03;;;;;;;33.88;24.67;;;16.10;91.70;;;;;;5049323;28;20191;-47
2022/10/29 13:05:42;;;;;;;31.92;25.45;;;16.30;91.70;;;;;;5042379;28;20397;-48